sensor_id;sensor_type;location;lat;lon;timestamp;P1;durP1;ratioP1;P2;durP2;ratioP2
67712;SDS011;54503;55.784;49.138;2022-10-28T00:00:18;6.95;;;2.00;;
67712;SDS011;54503;55.784;49.138;2022-10-28T00:05:23;9.90;;;2.67;;
67712;SDS011;54503;55.784;49.138;2022-10-28T00:10:29;7.00;;;2.30;;
67712;SDS011;54503;55.784;49.138;2022-10-28T00:15:35;5.90;;;2.47;;
67712;SDS011;54503;55.784;49.138;2022-10-28T00:26:17;7.67;;;2.60;;
67712;SDS011;54503;55.784;49.138;2022-10-28T00:31:23;10.17;;;2.70;;
67712;SDS011;54503;55.784;49.138;2022-10-28T00:36:53;8.77;;;2.37;;
67712;SDS011;54503;55.784;49.138;2022-10-28T00:41:59;7.30;;;2.90;;
67712;SDS011;54503;55.784;49.138;2022-10-28T00:47:09;6.00;;;2.50;;
67712;SDS011;54503;55.784;49.138;2022-10-28T00:52:27;10.13;;;2.60;;
67712;SDS011;54503;55.784;49.138;2022-10-28T00:57:47;6.33;;;2.70;;
67712;SDS011;54503;55.784;49.138;2022-10-28T01:03:06;10.50;;;2.93;;
67712;SDS011;54503;55.784;49.138;2022-10-28T01:08:12;6.75;;;2.72;;
67712;SDS011;54503;55.784;49.138;2022-10-28T01:30:05;6.57;;;3.03;;
67712;SDS011;54503;55.784;49.138;2022-10-28T01:35:24;9.57;;;3.27;;
67712;SDS011;54503;55.784;49.138;2022-10-28T01:40:31;8.00;;;2.87;;
67712;SDS011;54503;55.784;49.138;2022-10-28T01:56:54;6.55;;;2.67;;
67712;SDS011;54503;55.784;49.138;2022-10-28T02:02:15;7.30;;;2.90;;
67712;SDS011;54503;55.784;49.138;2022-10-28T02:07:21;6.92;;;2.47;;
67712;SDS011;54503;55.784;49.138;2022-10-28T02:29:01;7.20;;;2.80;;
67712;SDS011;54503;55.784;49.138;2022-10-28T02:34:24;6.45;;;2.80;;
67712;SDS011;54503;55.784;49.138;2022-10-28T02:39:44;6.75;;;2.83;;
67712;SDS011;54503;55.784;49.138;2022-10-28T02:45:05;9.47;;;3.20;;
67712;SDS011;54503;55.784;49.138;2022-10-28T02:50:27;8.13;;;2.90;;
67712;SDS011;54503;55.784;49.138;2022-10-28T02:55:33;7.10;;;2.60;;
67712;SDS011;54503;55.784;49.138;2022-10-28T03:00:42;6.63;;;2.63;;
67712;SDS011;54503;55.784;49.138;2022-10-28T03:06:12;7.73;;;2.57;;
67712;SDS011;54503;55.784;49.138;2022-10-28T03:11:17;9.00;;;2.30;;
67712;SDS011;54503;55.784;49.138;2022-10-28T03:16:22;6.75;;;2.67;;
67712;SDS011;54503;55.784;49.138;2022-10-28T03:21:41;9.68;;;2.33;;
67712;SDS011;54503;55.784;49.138;2022-10-28T03:27:14;8.90;;;2.15;;
67712;SDS011;54503;55.784;49.138;2022-10-28T03:32:20;8.53;;;2.80;;
67712;SDS011;54503;55.784;49.138;2022-10-28T03:37:42;6.87;;;2.57;;
67712;SDS011;54503;55.784;49.138;2022-10-28T03:43:01;9.80;;;2.50;;
67712;SDS011;54503;55.784;49.138;2022-10-28T03:48:20;5.67;;;2.23;;
67712;SDS011;54503;55.784;49.138;2022-10-28T03:53:39;9.20;;;2.00;;
67712;SDS011;54503;55.784;49.138;2022-10-28T04:04:10;20.33;;;2.37;;
67712;SDS011;54503;55.784;49.138;2022-10-28T04:09:15;6.62;;;2.75;;
67712;SDS011;54503;55.784;49.138;2022-10-28T04:14:34;8.13;;;2.60;;
67712;SDS011;54503;55.784;49.138;2022-10-28T04:19:53;16.90;;;2.37;;
67712;SDS011;54503;55.784;49.138;2022-10-28T04:25:12;11.25;;;2.50;;
67712;SDS011;54503;55.784;49.138;2022-10-28T04:30:17;7.28;;;2.85;;
67712;SDS011;54503;55.784;49.138;2022-10-28T04:35:37;9.95;;;3.20;;
67712;SDS011;54503;55.784;49.138;2022-10-28T04:41:01;6.60;;;2.65;;
67712;SDS011;54503;55.784;49.138;2022-10-28T04:46:06;6.58;;;2.37;;
67712;SDS011;54503;55.784;49.138;2022-10-28T04:51:24;12.18;;;2.67;;
67712;SDS011;54503;55.784;49.138;2022-10-28T04:56:30;9.80;;;2.72;;
67712;SDS011;54503;55.784;49.138;2022-10-28T05:01:52;5.97;;;2.12;;
67712;SDS011;54503;55.784;49.138;2022-10-28T05:07:16;9.13;;;2.40;;
67712;SDS011;54503;55.784;49.138;2022-10-28T05:12:40;11.73;;;2.40;;
67712;SDS011;54503;55.784;49.138;2022-10-28T05:18:04;12.68;;;2.67;;
67712;SDS011;54503;55.784;49.138;2022-10-28T05:23:38;10.53;;;2.60;;
67712;SDS011;54503;55.784;49.138;2022-10-28T05:28:43;8.83;;;2.08;;
67712;SDS011;54503;55.784;49.138;2022-10-28T05:33:48;19.87;;;2.85;;
67712;SDS011;54503;55.784;49.138;2022-10-28T05:39:08;8.23;;;3.30;;
67712;SDS011;54503;55.784;49.138;2022-10-28T05:44:14;11.10;;;2.55;;
67712;SDS011;54503;55.784;49.138;2022-10-28T05:49:36;7.47;;;2.25;;
67712;SDS011;54503;55.784;49.138;2022-10-28T05:54:41;6.67;;;2.35;;
67712;SDS011;54503;55.784;49.138;2022-10-28T06:00:00;11.13;;;2.57;;
67712;SDS011;54503;55.784;49.138;2022-10-28T06:05:07;12.73;;;2.95;;
67712;SDS011;54503;55.784;49.138;2022-10-28T06:10:33;10.63;;;3.22;;
67712;SDS011;54503;55.784;49.138;2022-10-28T06:15:38;9.83;;;4.03;;
67712;SDS011;54503;55.784;49.138;2022-10-28T06:20:44;11.15;;;3.52;;
67712;SDS011;54503;55.784;49.138;2022-10-28T06:26:12;14.95;;;3.10;;
67712;SDS011;54503;55.784;49.138;2022-10-28T06:31:18;6.37;;;2.17;;
67712;SDS011;54503;55.784;49.138;2022-10-28T06:36:24;9.93;;;2.75;;
67712;SDS011;54503;55.784;49.138;2022-10-28T06:41:29;8.28;;;3.02;;
67712;SDS011;54503;55.784;49.138;2022-10-28T06:46:49;8.15;;;2.42;;
67712;SDS011;54503;55.784;49.138;2022-10-28T06:51:54;8.13;;;2.75;;
67712;SDS011;54503;55.784;49.138;2022-10-28T06:57:13;9.95;;;2.83;;
67712;SDS011;54503;55.784;49.138;2022-10-28T07:02:32;9.63;;;3.50;;
67712;SDS011;54503;55.784;49.138;2022-10-28T07:07:53;8.50;;;3.03;;
67712;SDS011;54503;55.784;49.138;2022-10-28T07:12:59;7.25;;;2.90;;
67712;SDS011;54503;55.784;49.138;2022-10-28T07:18:05;11.30;;;3.70;;
67712;SDS011;54503;55.784;49.138;2022-10-28T07:23:23;6.93;;;2.90;;
67712;SDS011;54503;55.784;49.138;2022-10-28T07:28:29;13.15;;;4.00;;
67712;SDS011;54503;55.784;49.138;2022-10-28T07:39:27;15.75;;;4.22;;
67712;SDS011;54503;55.784;49.138;2022-10-28T07:44:46;7.03;;;2.75;;
67712;SDS011;54503;55.784;49.138;2022-10-28T07:50:06;8.13;;;3.30;;
67712;SDS011;54503;55.784;49.138;2022-10-28T07:55:12;9.18;;;3.10;;
67712;SDS011;54503;55.784;49.138;2022-10-28T08:00:18;7.58;;;2.75;;
67712;SDS011;54503;55.784;49.138;2022-10-28T08:05:35;8.43;;;2.67;;
67712;SDS011;54503;55.784;49.138;2022-10-28T08:16:01;6.45;;;2.67;;
67712;SDS011;54503;55.784;49.138;2022-10-28T08:21:20;8.70;;;2.57;;
67712;SDS011;54503;55.784;49.138;2022-10-28T08:26:39;14.55;;;3.92;;
67712;SDS011;54503;55.784;49.138;2022-10-28T08:32:12;12.07;;;3.45;;
67712;SDS011;54503;55.784;49.138;2022-10-28T08:37:17;4.47;;;1.80;;
67712;SDS011;54503;55.784;49.138;2022-10-28T08:42:39;5.42;;;2.12;;
67712;SDS011;54503;55.784;49.138;2022-10-28T08:53:57;8.75;;;3.10;;
67712;SDS011;54503;55.784;49.138;2022-10-28T08:59:23;12.98;;;2.42;;
67712;SDS011;54503;55.784;49.138;2022-10-28T09:04:42;5.03;;;1.97;;
67712;SDS011;54503;55.784;49.138;2022-10-28T09:09:48;8.65;;;1.85;;
67712;SDS011;54503;55.784;49.138;2022-10-28T09:47:36;8.03;;;3.50;;
67712;SDS011;54503;55.784;49.138;2022-10-28T09:58:21;13.48;;;3.60;;
67712;SDS011;54503;55.784;49.138;2022-10-28T10:03:40;16.12;;;6.03;;
67712;SDS011;54503;55.784;49.138;2022-10-28T10:08:59;13.30;;;4.72;;
67712;SDS011;54503;55.784;49.138;2022-10-28T10:14:06;15.72;;;5.90;;
67712;SDS011;54503;55.784;49.138;2022-10-28T10:52:05;21.55;;;6.30;;
67712;SDS011;54503;55.784;49.138;2022-10-28T11:02:49;14.68;;;5.40;;
67712;SDS011;54503;55.784;49.138;2022-10-28T11:08:10;11.40;;;4.95;;
67712;SDS011;54503;55.784;49.138;2022-10-28T11:13:29;14.50;;;4.73;;
67712;SDS011;54503;55.784;49.138;2022-10-28T11:18:50;16.65;;;5.37;;
67712;SDS011;54503;55.784;49.138;2022-10-28T11:29:55;13.65;;;4.58;;
67712;SDS011;54503;55.784;49.138;2022-10-28T12:02:52;25.48;;;5.40;;
67712;SDS011;54503;55.784;49.138;2022-10-28T12:19:26;15.40;;;3.95;;
67712;SDS011;54503;55.784;49.138;2022-10-28T12:24:16;10.48;;;5.00;;
67712;SDS011;54503;55.784;49.138;2022-10-28T12:35:04;11.12;;;4.62;;
67712;SDS011;54503;55.784;49.138;2022-10-28T12:46:01;11.12;;;4.65;;
67712;SDS011;54503;55.784;49.138;2022-10-28T13:36:09;19.62;;;7.97;;
67712;SDS011;54503;55.784;49.138;2022-10-28T13:57:39;27.60;;;11.67;;
67712;SDS011;54503;55.784;49.138;2022-10-28T14:02:59;28.92;;;11.40;;
67712;SDS011;54503;55.784;49.138;2022-10-28T14:08:23;32.38;;;9.58;;
67712;SDS011;54503;55.784;49.138;2022-10-28T14:19:26;24.20;;;7.53;;
67712;SDS011;54503;55.784;49.138;2022-10-28T14:24:50;21.63;;;7.17;;
67712;SDS011;54503;55.784;49.138;2022-10-28T14:30:16;16.97;;;6.47;;
67712;SDS011;54503;55.784;49.138;2022-10-28T14:35:39;17.20;;;7.45;;
67712;SDS011;54503;55.784;49.138;2022-10-28T14:52:21;25.70;;;8.17;;
67712;SDS011;54503;55.784;49.138;2022-10-28T14:57:27;26.60;;;10.68;;
67712;SDS011;54503;55.784;49.138;2022-10-28T15:02:35;33.92;;;10.28;;
67712;SDS011;54503;55.784;49.138;2022-10-28T15:07:55;28.38;;;11.50;;
67712;SDS011;54503;55.784;49.138;2022-10-28T15:13:02;30.90;;;11.20;;
67712;SDS011;54503;55.784;49.138;2022-10-28T15:18:22;29.82;;;10.03;;
67712;SDS011;54503;55.784;49.138;2022-10-28T15:23:42;27.50;;;9.90;;
67712;SDS011;54503;55.784;49.138;2022-10-28T15:28:48;21.20;;;8.10;;
67712;SDS011;54503;55.784;49.138;2022-10-28T15:34:18;19.60;;;7.75;;
67712;SDS011;54503;55.784;49.138;2022-10-28T15:39:18;17.30;;;7.20;;
67712;SDS011;54503;55.784;49.138;2022-10-28T15:55:29;24.03;;;7.90;;
67712;SDS011;54503;55.784;49.138;2022-10-28T16:00:35;26.52;;;8.50;;
67712;SDS011;54503;55.784;49.138;2022-10-28T16:11:21;15.57;;;6.27;;
67712;SDS011;54503;55.784;49.138;2022-10-28T16:16:37;15.95;;;5.20;;
67712;SDS011;54503;55.784;49.138;2022-10-28T16:21:56;14.00;;;5.62;;
67712;SDS011;54503;55.784;49.138;2022-10-28T16:43:31;13.05;;;6.03;;
67712;SDS011;54503;55.784;49.138;2022-10-28T16:48:50;19.05;;;5.35;;
67712;SDS011;54503;55.784;49.138;2022-10-28T16:54:08;15.30;;;5.80;;
67712;SDS011;54503;55.784;49.138;2022-10-28T16:59:14;13.78;;;5.20;;
67712;SDS011;54503;55.784;49.138;2022-10-28T17:04:33;19.23;;;5.42;;
67712;SDS011;54503;55.784;49.138;2022-10-28T17:09:53;14.13;;;5.13;;
67712;SDS011;54503;55.784;49.138;2022-10-28T17:15:12;14.43;;;5.67;;
67712;SDS011;54503;55.784;49.138;2022-10-28T17:20:33;16.80;;;5.80;;
67712;SDS011;54503;55.784;49.138;2022-10-28T17:25:38;17.55;;;5.85;;
67712;SDS011;54503;55.784;49.138;2022-10-28T17:36:23;16.23;;;5.47;;
67712;SDS011;54503;55.784;49.138;2022-10-28T17:41:29;12.70;;;5.22;;
67712;SDS011;54503;55.784;49.138;2022-10-28T17:46:35;12.67;;;5.87;;
67712;SDS011;54503;55.784;49.138;2022-10-28T17:51:54;14.87;;;5.65;;
67712;SDS011;54503;55.784;49.138;2022-10-28T17:57:13;19.52;;;6.08;;
67712;SDS011;54503;55.784;49.138;2022-10-28T18:02:33;14.30;;;5.93;;
67712;SDS011;54503;55.784;49.138;2022-10-28T18:07:39;16.65;;;6.85;;
67712;SDS011;54503;55.784;49.138;2022-10-28T18:12:45;18.53;;;7.80;;
67712;SDS011;54503;55.784;49.138;2022-10-28T18:18:04;17.47;;;7.00;;
67712;SDS011;54503;55.784;49.138;2022-10-28T18:23:09;18.80;;;7.05;;
67712;SDS011;54503;55.784;49.138;2022-10-28T18:28:15;18.32;;;6.95;;
67712;SDS011;54503;55.784;49.138;2022-10-28T18:33:21;19.92;;;7.12;;
67712;SDS011;54503;55.784;49.138;2022-10-28T18:38:40;18.07;;;7.08;;
67712;SDS011;54503;55.784;49.138;2022-10-28T18:49:35;16.30;;;7.03;;
67712;SDS011;54503;55.784;49.138;2022-10-28T18:54:43;20.37;;;7.25;;
67712;SDS011;54503;55.784;49.138;2022-10-28T18:59:49;17.77;;;7.17;;
67712;SDS011;54503;55.784;49.138;2022-10-28T19:05:08;16.77;;;7.12;;
67712;SDS011;54503;55.784;49.138;2022-10-28T19:10:38;18.67;;;6.45;;
67712;SDS011;54503;55.784;49.138;2022-10-28T19:21:14;15.50;;;6.72;;
67712;SDS011;54503;55.784;49.138;2022-10-28T19:26:29;15.65;;;6.60;;
67712;SDS011;54503;55.784;49.138;2022-10-28T19:31:43;16.00;;;6.90;;
67712;SDS011;54503;55.784;49.138;2022-10-28T19:37:02;17.20;;;7.25;;
67712;SDS011;54503;55.784;49.138;2022-10-28T19:42:21;18.82;;;7.08;;
67712;SDS011;54503;55.784;49.138;2022-10-28T19:47:40;18.50;;;7.10;;
67712;SDS011;54503;55.784;49.138;2022-10-28T19:52:59;15.72;;;6.95;;
67712;SDS011;54503;55.784;49.138;2022-10-28T19:58:18;15.50;;;6.97;;
67712;SDS011;54503;55.784;49.138;2022-10-28T20:03:38;19.20;;;7.10;;
67712;SDS011;54503;55.784;49.138;2022-10-28T20:09:10;16.12;;;6.47;;
67712;SDS011;54503;55.784;49.138;2022-10-28T20:14:16;17.47;;;6.43;;
67712;SDS011;54503;55.784;49.138;2022-10-28T20:19:21;18.00;;;6.67;;
67712;SDS011;54503;55.784;49.138;2022-10-28T20:24:41;17.90;;;7.05;;
67712;SDS011;54503;55.784;49.138;2022-10-28T20:30:06;16.10;;;6.10;;
67712;SDS011;54503;55.784;49.138;2022-10-28T20:35:12;13.35;;;6.30;;
67712;SDS011;54503;55.784;49.138;2022-10-28T20:40:17;17.17;;;6.83;;
67712;SDS011;54503;55.784;49.138;2022-10-28T20:45:27;15.47;;;7.10;;
67712;SDS011;54503;55.784;49.138;2022-10-28T20:56:26;13.50;;;6.22;;
67712;SDS011;54503;55.784;49.138;2022-10-28T21:01:57;16.40;;;6.40;;
67712;SDS011;54503;55.784;49.138;2022-10-28T21:07:02;15.95;;;6.17;;
67712;SDS011;54503;55.784;49.138;2022-10-28T21:12:08;14.93;;;6.37;;
67712;SDS011;54503;55.784;49.138;2022-10-28T21:17:27;14.00;;;5.67;;
67712;SDS011;54503;55.784;49.138;2022-10-28T21:22:52;13.80;;;5.55;;
67712;SDS011;54503;55.784;49.138;2022-10-28T21:27:58;14.23;;;5.65;;
67712;SDS011;54503;55.784;49.138;2022-10-28T21:33:17;14.93;;;6.53;;
67712;SDS011;54503;55.784;49.138;2022-10-28T21:38:36;16.65;;;6.12;;
67712;SDS011;54503;55.784;49.138;2022-10-28T21:43:55;13.20;;;6.08;;
67712;SDS011;54503;55.784;49.138;2022-10-28T21:49:15;14.87;;;6.37;;
67712;SDS011;54503;55.784;49.138;2022-10-28T21:54:21;14.05;;;5.90;;
67712;SDS011;54503;55.784;49.138;2022-10-28T21:59:27;14.13;;;5.90;;
67712;SDS011;54503;55.784;49.138;2022-10-28T22:04:32;12.68;;;6.17;;
67712;SDS011;54503;55.784;49.138;2022-10-28T22:10:04;14.23;;;6.35;;
67712;SDS011;54503;55.784;49.138;2022-10-28T22:15:09;13.53;;;5.87;;
67712;SDS011;54503;55.784;49.138;2022-10-28T22:20:28;13.83;;;5.87;;
67712;SDS011;54503;55.784;49.138;2022-10-28T22:25:33;13.62;;;6.12;;
67712;SDS011;54503;55.784;49.138;2022-10-28T22:30:40;12.25;;;5.85;;
67712;SDS011;54503;55.784;49.138;2022-10-28T22:36:00;12.60;;;5.60;;
67712;SDS011;54503;55.784;49.138;2022-10-28T22:41:06;12.53;;;5.75;;
67712;SDS011;54503;55.784;49.138;2022-10-28T22:46:27;11.43;;;5.37;;
67712;SDS011;54503;55.784;49.138;2022-10-28T22:51:46;11.07;;;5.07;;
67712;SDS011;54503;55.784;49.138;2022-10-28T22:57:05;10.80;;;5.17;;
67712;SDS011;54503;55.784;49.138;2022-10-28T23:02:24;15.13;;;6.23;;
67712;SDS011;54503;55.784;49.138;2022-10-28T23:07:29;16.25;;;6.00;;
67712;SDS011;54503;55.784;49.138;2022-10-28T23:12:34;23.20;;;8.05;;
67712;SDS011;54503;55.784;49.138;2022-10-28T23:17:53;20.10;;;7.40;;
67712;SDS011;54503;55.784;49.138;2022-10-28T23:23:13;22.15;;;8.55;;
67712;SDS011;54503;55.784;49.138;2022-10-28T23:28:32;17.97;;;7.80;;
67712;SDS011;54503;55.784;49.138;2022-10-28T23:33:38;23.22;;;8.45;;
67712;SDS011;54503;55.784;49.138;2022-10-28T23:38:43;19.77;;;8.20;;
67712;SDS011;54503;55.784;49.138;2022-10-28T23:43:49;21.53;;;7.97;;
67712;SDS011;54503;55.784;49.138;2022-10-28T23:49:08;17.82;;;7.05;;
67712;SDS011;54503;55.784;49.138;2022-10-28T23:54:13;15.67;;;6.23;;
67712;SDS011;54503;55.784;49.138;2022-10-28T23:59:32;12.17;;;5.33;;
